• Join FlightAware (Why Join?)
  • Login
  • US Flag 
06:13AM EDT


 

Airport Tracker/Info


-or-


 

Live Flight TrackerFlight Track Log ✈ N888LU ✈ 02-May-2013 ✈ KLYH - KOSU

Flight Track Log - Related Links

Times and Time Zones

All times are in EDT time to prevent confusion due to time zone crossing. See the N888LU flight status page for this flight to view local times or setup timezone preferences in your user account.

Time Position Orientation Groundspeed Altitude Reporting Facility
EDT Latitude Longitude Course Direction KTS MPH feet Rate Location/Type
08:00AM 37.3167 -79.4615 270° West  Level FlightAware Approximate
08:01AM 37.3167 -79.5050 270° West  Level FlightAware Approximate
08:02AM 37.3172 -79.5486 272° West  Level FlightAware Approximate
08:03AM 37.3186 -79.5921 272° West  Level FlightAware Approximate
08:04AM 37.3200 -79.6357 272° West  Level FlightAware Approximate
08:05AM 37.3215 -79.6792 272° West  Level FlightAware Approximate
08:06AM 37.3229 -79.7227 272° West  Level FlightAware Approximate
08:07AM 37.3242 -79.7663 272° West  Level FlightAware Approximate
08:08AM 37.3256 -79.8099 272° West  Level FlightAware Approximate
08:08AM 37.4344 -79.6067 272° West 97 112 8,000  Level Washington Center
08:09AM 37.3270 -79.8534 272° West  Level FlightAware Approximate
08:09AM 37.4436 -79.6439 287° West 116 133 8,000  Level Washington Center
08:09AM 37.4486 -79.6781 280° West 116 133 8,100  Climbing Washington Center
08:10AM 37.3283 -79.8969 272° West  Level FlightAware Approximate
08:10AM 37.4492 -79.7253 271° West 116 133 8,000  Level Washington Center
08:11AM 37.3296 -79.9405 272° West  Level FlightAware Approximate
08:11AM 37.4564 -79.7569 286° West 125 144 8,000  Level Washington Center
08:12AM 37.3309 -79.9840 272° West  Level FlightAware Approximate
08:12AM 37.4653 -79.7994 285° West 125 144 8,000  Level Washington Center
08:13AM 37.3322 -80.0276 272° West  Level FlightAware Approximate
08:14AM 37.4725 -79.8336 285° West 125 144 8,000  Level Washington Center
08:14AM 37.4792 -79.8811 280° West 125 144 8,000  Level Washington Center
08:15AM 37.4864 -79.9156 285° West 120 138 8,000  Level Washington Center
08:16AM 37.4911 -79.9553 279° West 120 138 8,000  Level Washington Center
08:17AM 37.4981 -79.9922 283° West 120 138 8,100  Climbing Washington Center
08:19AM 37.5031 -80.0292 280° West 120 138 8,000 -60 Descending Washington Center
08:19AM 37.5097 -80.0689 282° West 120 138 8,000  Level Washington Center
08:20AM 37.5167 -80.1111 282° West 125 144 8,100  Climbing Washington Center
08:21AM 37.5214 -80.1506 279° West 125 144 8,100  Level Washington Center
08:23AM 37.5300 -80.1958 283° West 125 144 8,100  Level Washington Center
08:24AM 37.5367 -80.2381 281° West 125 144 8,100  Level Washington Center
08:24AM 37.5414 -80.2778 279° West 125 144 8,100 -60 Level Washington Center
08:25AM 37.5503 -80.3200 285° West 125 144 8,000  Descending Washington Center
08:26AM 37.5742 -80.3478 317° Northwest 120 138 8,100 -60 Climbing Washington Center
08:27AM 37.6003 -80.3731 323° Northwest 120 138 7,900  Descending Washington Center
08:28AM 37.6222 -80.4006 315° West 120 138 8,100 60 Climbing Washington Center
08:29AM 37.6481 -80.4286 319° Northwest 120 138 8,100 -60 Level Washington Center
08:31AM 37.6700 -80.4561 315° West 120 138 8,000 -60 Descending Washington Center
08:31AM 37.6978 -80.4894 316° Northwest 120 138 8,000  Level Washington Center
08:32AM 37.7239 -80.5175 320° Northwest 120 138 8,100  Climbing Washington Center
08:33AM 37.7475 -80.5478 315° West 120 138 8,000 -60 Descending Washington Center
08:35AM 37.7733 -80.5783 317° Northwest 120 138 8,000  Level Washington Center
08:35AM 37.7972 -80.6064 317° Northwest 120 138 8,000  Level Washington Center
08:36AM 37.8211 -80.6342 317° Northwest 120 138 8,100  Climbing Washington Center
08:38AM 37.8733 -80.6867 322° Northwest 125 144 8,000 -120 Descending Indianapolis Center
08:39AM 37.8972 -80.7167 315° West 122 140 7,900  Descending Indianapolis Center
08:40AM 37.9225 -80.7442 319° Northwest 120 138 8,000  Climbing Indianapolis Center
08:41AM 37.9467 -80.7739 316° Northwest 122 140 8,000  Level Indianapolis Center
08:42AM 37.9722 -80.8028 318° Northwest 123 142 8,000  Level Indianapolis Center
08:43AM 37.9897 -80.8369 303° West 116 133 8,000  Level Indianapolis Center
08:44AM 38.0036 -80.8736 296° West 115 132 8,000 -60 Level Indianapolis Center
08:46AM 38.0178 -80.9083 297° West 113 130 7,900  Descending Indianapolis Center
08:47AM 38.0339 -80.9514 295° West 113 130 8,000  Climbing Indianapolis Center
08:48AM 38.0478 -80.9861 297° West 110 127 8,000  Level Indianapolis Center
08:49AM 38.0622 -81.0225 297° West 115 132 8,000 -60 Level Indianapolis Center
08:50AM 38.0772 -81.0578 298° West 115 132 7,900 -60 Descending Indianapolis Center
08:51AM 38.0911 -81.0950 295° West 116 133 7,900  Level Indianapolis Center
08:52AM 38.1028 -81.1303 293° West 110 127 8,000  Climbing Indianapolis Center
08:53AM 38.1164 -81.1669 295° West 113 130 8,000  Level Indianapolis Center
08:54AM 38.1292 -81.2044 293° West 114 131 8,000  Level Indianapolis Center
08:55AM 38.1461 -81.2367 304° West 111 128 8,000  Level Indianapolis Center
08:56AM 38.1644 -81.2775 300° West 109 125 8,000  Level Indianapolis Center
08:57AM 38.1744 -81.3131 290° West 107 123 8,000  Level Indianapolis Center
08:58AM 38.1869 -81.3469 295° West 106 122 8,000  Level Indianapolis Center
08:59AM 38.1983 -81.3819 293° West 106 122 8,000  Level Indianapolis Center
09:00AM 38.2125 -81.4142 299° West 104 120 8,000  Level Indianapolis Center
09:01AM 38.2253 -81.4461 297° West 101 116 8,000  Level Indianapolis Center
09:02AM 38.2383 -81.4797 296° West 103 119 8,000  Level Indianapolis Center
09:03AM 38.2539 -81.5122 301° West 107 123 8,000  Level Indianapolis Center
09:04AM 38.2728 -81.5497 303° West 106 122 8,000  Level Indianapolis Center
09:05AM 38.2844 -81.5847 293° West 107 123 8,000  Level Indianapolis Center
09:06AM 38.2969 -81.6197 294° West 109 125 8,000  Level Indianapolis Center
09:07AM 38.3086 -81.6550 293° West 109 125 8,000  Level Indianapolis Center
09:08AM 38.3222 -81.6894 297° West 110 127 8,000  Level Indianapolis Center
09:09AM 38.3358 -81.7239 297° West 108 124 8,000  Level Indianapolis Center
09:10AM 38.3483 -81.7608 293° West 111 128 8,000  Level Indianapolis Center
09:11AM 38.3744 -81.7817 328° Northwest 117 135 8,000  Level Indianapolis Center
09:12AM 38.4086 -81.8039 333° Northwest 116 133 8,000  Level Indianapolis Center
09:13AM 38.4361 -81.8242 330° Northwest 115 132 8,000  Level Indianapolis Center
09:14AM 38.4625 -81.8458 327° Northwest 113 130 8,100  Climbing Indianapolis Center
09:15AM 38.4925 -81.8628 336° Northwest 117 135 8,100 -60 Level Indianapolis Center
09:16AM 38.5222 -81.8794 336° Northwest 117 135 8,000 -60 Descending Indianapolis Center
09:17AM 38.5511 -81.8983 333° Northwest 116 133 8,000  Level Indianapolis Center
09:18AM 38.5794 -81.9181 331° Northwest 116 133 8,000  Level Indianapolis Center
09:19AM 38.6094 -81.9367 334° Northwest 119 137 8,000  Level Indianapolis Center
09:21AM 38.6453 -81.9578 335° Northwest 119 137 8,000  Level Indianapolis Center
09:22AM 38.6739 -81.9758 334° Northwest 115 132 8,000  Level Indianapolis Center
09:23AM 38.7028 -81.9950 333° Northwest 116 133 8,000  Level Indianapolis Center
09:24AM 38.7331 -82.0103 339° North 117 135 8,000  Level Indianapolis Center
09:25AM 38.7617 -82.0300 332° Northwest 117 135 8,000  Level Indianapolis Center
09:26AM 38.7919 -82.0417 343° North 114 131 8,000  Level Indianapolis Center
09:27AM 38.8236 -82.0550 342° North 119 137 8,000  Level Indianapolis Center
09:28AM 38.8600 -82.0708 341° North 115 132 8,000  Level Indianapolis Center
09:29AM 38.8925 -82.0794 348° North 117 135 8,000  Level Indianapolis Center
09:30AM 38.9233 -82.0936 340° North 117 135 8,100  Climbing Indianapolis Center
09:31AM 38.9547 -82.1053 344° North 119 137 8,100  Level Indianapolis Center
09:32AM 38.9881 -82.1189 342° North 123 142 8,100  Level Indianapolis Center
09:33AM 39.0200 -82.1328 341° North 120 138 8,100 -60 Level Indianapolis Center
09:34AM 39.0531 -82.1458 343° North 122 140 8,000 -60 Descending Indianapolis Center
09:35AM 39.0922 -82.1628 341° North 123 142 8,000  Level Indianapolis Center
09:36AM 39.1256 -82.1767 342° North 125 144 8,000 -60 Level Indianapolis Center
09:37AM 39.1597 -82.1889 344° North 126 145 7,900  Descending Indianapolis Center
09:38AM 39.1936 -82.2003 345° North 127 146 8,000  Climbing Indianapolis Center
09:39AM 39.2278 -82.2178 338° Northwest 130 150 8,000  Level Indianapolis Center
09:40AM 39.2614 -82.2308 343° North 127 146 8,000  Level Indianapolis Center
09:41AM 39.3050 -82.2456 345° North 133 153 8,000  Level Indianapolis Center
09:42AM 39.3400 -82.2600 342° North 132 152 8,000 -60 Level Indianapolis Center
09:43AM 39.3756 -82.2722 345° North 131 151 7,900 -60 Descending Indianapolis Center
09:44AM 39.4133 -82.2853 345° North 131 151 7,900  Level Indianapolis Center
09:45AM 39.4481 -82.2972 345° North 130 150 8,000 -60 Climbing Indianapolis Center
09:46AM 39.4803 -82.3192 332° Northwest 132 152 7,800  Descending Indianapolis Center
09:47AM 39.5053 -82.3542 313° West 141 162 8,000 60 Climbing Indianapolis Center
09:48AM 39.5322 -82.3894 315° West 137 158 8,000  Level Indianapolis Center
09:49AM 39.5594 -82.4247 315° West 140 161 8,000  Level Indianapolis Center
09:50AM 39.5883 -82.4603 317° Northwest 141 162 8,000  Level Indianapolis Center
09:51AM 39.6156 -82.4956 315° West 140 161 8,000  Level Indianapolis Center
09:52AM 39.6406 -82.5281 315° West 140 161 8,000  Level Indianapolis Center
09:53AM 39.6514 -82.5386 323° Northwest 139 160 8,000  Level Indianapolis Center
09:53AM 39.6758 -82.5672 318° Northwest 140 161 8,000 -120 Level Indianapolis Center
09:54AM 39.6819 -82.5719 329° Northwest 140 161 7,900 60 Descending Indianapolis Center
09:54AM 39.7028 -82.5997 314° West 138 159 8,100 60 Climbing Indianapolis Center
09:55AM 39.7089 -82.6064 320° Northwest 137 158 8,000  Descending Indianapolis Center
09:55AM 39.7300 -82.6353 314° West 139 160 8,100  Climbing Indianapolis Center
09:56AM 39.7367 -82.6428 319° Northwest 139 160 8,000 -120 Descending Indianapolis Center
09:56AM 39.7589 -82.6711 316° Northwest 142 163 8,000 -240 Level Indianapolis Center
09:57AM 39.7669 -82.6764 333° Northwest 141 162 7,800 -600 Descending Indianapolis Center
09:57AM 39.7969 -82.6969 332° Northwest 148 170 7,400 -540 Descending Indianapolis Center
09:58AM 39.8033 -82.7008 335° Northwest 143 165 7,300 -360 Descending Indianapolis Center
09:58AM 39.8269 -82.7192 329° Northwest 145 167 7,100 -540 Descending Indianapolis Center
09:59AM 39.8458 -82.7283 340° North 144 166 6,800 -540 Descending Indianapolis Center
09:59AM 39.8672 -82.7428 333° Northwest 145 167 6,600 -600 Descending Indianapolis Center
10:00AM 39.8769 -82.7611 305° West 146 168 6,200 -480 Descending Indianapolis Center
10:00AM 39.8828 -82.7933 283° West 139 160 6,100 -300 Descending Indianapolis Center
10:01AM 39.8867 -82.8108 286° West 141 162 5,900 -120 Descending Indianapolis Center
10:01AM 39.8944 -82.8353 293° West 131 151 6,000  Climbing Indianapolis Center
10:02AM 39.8997 -82.8539 290° West 132 152 5,900  Descending Indianapolis Center
10:02AM 39.9061 -82.8803 288° West 125 144 6,000  Climbing Indianapolis Center
10:03AM 39.9117 -82.8983 292° West 129 148 5,900  Descending Indianapolis Center
10:03AM 39.9178 -82.9250 287° West 131 151 6,000  Climbing Indianapolis Center
10:04AM 39.9231 -82.9431 291° West 130 150 5,900 -420 Descending Indianapolis Center
10:04AM 39.9292 -82.9725 285° West 138 159 5,600 -540 Descending Indianapolis Center
10:05AM 39.9361 -82.9994 289° West 135 155 5,400 -420 Descending Indianapolis Center
10:05AM 39.9406 -83.0200 286° West 132 152 5,200 -540 Descending Indianapolis Center
10:06AM 39.9472 -83.0439 290° West 133 153 4,900 -600 Descending Indianapolis Center
10:06AM 39.9611 -83.0578 323° Northwest 129 148 4,600 -780 Descending Indianapolis Center
10:07AM 39.9772 -83.0694 331° Northwest 130 150 4,100 -600 Descending Indianapolis Center
10:07AM 39.9886 -83.0828 318° Northwest 120 138 4,000 -240 Descending Indianapolis Center
10:08AM 40.0047 -83.0958 328° Northwest 124 143 3,900  Descending Indianapolis Center
10:08AM 40.0164 -83.1050 329° Northwest 115 132 4,000 -300 Climbing Indianapolis Center
10:09AM 40.0314 -83.1161 330° Northwest 117 135 3,600 -720 Descending Indianapolis Center
10:09AM 40.0422 -83.1272 322° Northwest 106 122 3,300 -600 Descending Indianapolis Center
10:10AM 40.0569 -83.1319 346° North 108 124 3,000 -600 Descending Indianapolis Center
10:10AM 40.0653 -83.1272 23° Northeast 75 86 2,700 -780 Descending Indianapolis Center
10:11AM 40.0736 -83.1158 46° Northeast 87 100 2,200 -900 Descending Indianapolis Center
10:12AM 40.0753 -83.1036 80° East 65 75 1,800 -1,200 Descending Indianapolis Center
10:12AM 40.0769 -83.0869 83° East 73 84 1,000 -1,200 Descending Indianapolis Center
10:14AM 40.0798 -83.0732 124° Southeast  Level Estimated
10:21AM 40.0798 -83.0732 354° North  Level Estimated